메인 페이지
METAR-TAF:

METAR-TAF

공항 :

인천국제공항

인천, 대한민국

위도: 37-28N, 경도: 126-27E, 고도: 7m

현재 날씨관측

예보는 14분 전, 15:30시(UTC)에 발표되었습니다.
서남서4kt
온도 26°C
습도 70%
기압 1009 hPa
시정 10km 이상
1500m 미만 상공 구름 및 적란운 없음

METAR: RKSI 191530Z 25004KT CAVOK 26/20 Q1009 NOSIG

시각: 00:44 (15:44 UTC)

예보

예보는 4 시간 44분 전, 11:00시(UTC)에 발표되었습니다.
예보 대상 시간: 19일 12시부터 20일 18시까지 (UTC)
북북서8kt
시정: 8000m
고도 3000ft 상공 구름 보통
고도 14000ft 상공 구름 많음
전환 중
19일 16시부터 19일 17시까지 (UTC)
남남동7kt
일시적
20일 03시부터 20일 07시까지 (UTC)
북서10kt
일시적
20일 09시부터 20일 12시까지 (UTC)
남서15kt, 순간 최대 풍속 25kt
전환 중
20일 13시부터 20일 14시까지 (UTC)
남남서18kt, 순간 최대 풍속 30kt

TAF: RKSI 191100Z 1912/2018 34008KT 8000 SCT030 BKN140 TN24/1921Z TX31/2005Z BECMG 1916/1917 15007KT TEMPO 2003/2007 31010KT TEMPO 2009/2012 23015G25KT BECMG 2013/2014 20018G30KT

4,000개 이상의 공항 관측 자료 및 예보 (METAR 및 TAF 보고).

지도상에서 검색 가능한 기상관측소가 노란 점과 빨간 점으로 표시되어 있습니다.

기상관측소 명을 보려면 표시 위로 마우스를 이동하세요.

날씨 관측과 예보를 보려면 클릭하세요.

지도 변경 : 확대하려면 엑스 표시가 있는 녹색 버튼, 축소하려면 빼기 표시가 있는 녹색 버튼, 다음 페이지의 지도를 보려면 녹색 화살표를 클릭하세요.


METAR-TAF: